Time;durP1;ratioP1;P1;durP2;ratioP2;P2;SDS_P1;SDS_P2;PMS_P1;PMS_P2;Temp;Humidity;BMP_temperature;BMP_pressure;BME280_temperature;BME280_humidity;BME280_pressure;Samples;Min_cycle;Max_cycle;Signal;HPM_P1;HPM_P2
2021/08/23 00:02:14;;;;;;;27.35;18.17;;;18.80;97.50;;;;;;4997478;28;20044;-91
2021/08/23 00:04:39;;;;;;;35.38;18.45;;;18.80;97.50;;;;;;5013297;28;20164;-91
2021/08/23 00:07:05;;;;;;;25.88;16.63;;;18.80;97.50;;;;;;5013682;28;20026;-92
2021/08/23 00:09:31;;;;;;;25.10;16.83;;;18.70;97.40;;;;;;5013710;28;20505;-90
2021/08/23 00:11:58;;;;;;;29.33;16.55;;;18.70;97.40;;;;;;5013806;28;20040;-91
2021/08/23 00:14:23;;;;;;;36.75;16.83;;;18.70;97.30;;;;;;5013771;28;20092;-89
2021/08/23 00:16:49;;;;;;;25.02;16.17;;;18.70;97.30;;;;;;4997213;28;20041;-89
2021/08/23 00:19:15;;;;;;;24.17;16.52;;;18.60;97.30;;;;;;5013792;28;20053;-90
2021/08/23 00:21:44;;;;;;;23.70;15.32;;;18.70;97.30;;;;;;5013431;28;20029;-88
2021/08/23 00:24:21;;;;;;;21.23;15.52;;;18.70;97.70;;;;;;5013278;28;20022;-86
2021/08/23 00:26:55;;;;;;;22.73;13.48;;;18.70;97.40;;;;;;4997719;28;20026;-86
2021/08/23 00:29:21;;;;;;;;;;;18.60;97.50;;;;;;4997361;28;20054;-88
2021/08/23 00:31:47;;;;;;;15.88;11.75;;;18.60;97.50;;;;;;5014491;28;19913;-88
2021/08/23 00:34:13;;;;;;;17.52;14.13;;;18.70;97.40;;;;;;4996719;28;20084;-88
2021/08/23 00:36:39;;;;;;;20.20;14.40;;;18.60;97.40;;;;;;5013016;28;20034;-88
2021/08/23 00:39:09;;;;;;;20.50;15.27;;;18.60;97.40;;;;;;5012884;28;20022;-88
2021/08/23 00:41:36;;;;;;;18.88;14.30;;;18.60;97.50;;;;;;4996742;28;20038;-87
2021/08/23 00:44:03;;;;;;;21.58;16.02;;;18.60;97.50;;;;;;5014046;28;20105;-88
2021/08/23 00:46:29;;;;;;;28.60;17.15;;;18.60;97.50;;;;;;5012734;28;20038;-88
2021/08/23 00:48:55;;;;;;;25.00;17.50;;;18.60;97.50;;;;;;4998628;28;20042;-90
2021/08/23 00:51:21;;;;;;;22.83;17.60;;;18.60;97.50;;;;;;5000555;28;20037;-88
2021/08/23 00:53:50;;;;;;;30.52;18.30;;;18.60;97.50;;;;;;5017982;28;20036;-89
2021/08/23 00:56:18;;;;;;;23.20;16.52;;;18.60;97.50;;;;;;5018300;28;20041;-88
2021/08/23 00:58:44;;;;;;;23.75;17.52;;;18.50;97.50;;;;;;5016454;28;20137;-88
2021/08/23 01:01:15;;;;;;;25.98;18.42;;;18.50;97.50;;;;;;5000845;28;20036;-88
2021/08/23 01:03:56;;;;;;;25.65;18.85;;;18.60;97.60;;;;;;5016725;28;20072;-89
2021/08/23 01:06:24;;;;;;;29.83;19.83;;;18.50;97.60;;;;;;5017849;28;20128;-88
2021/08/23 01:08:53;;;;;;;27.73;19.25;;;18.50;97.60;;;;;;5017095;28;20445;-89
2021/08/23 01:11:20;;;;;;;27.65;18.95;;;18.50;97.60;;;;;;5017654;28;20061;-90
2021/08/23 01:13:49;;;;;;;25.13;18.40;;;18.50;97.60;;;;;;5016727;28;20026;-88
2021/08/23 01:16:16;;;;;;;27.13;19.38;;;18.50;97.60;;;;;;5016674;28;20038;-88
2021/08/23 01:18:45;;;;;;;30.52;20.77;;;18.50;97.60;;;;;;5017735;28;20040;-88
2021/08/23 01:21:18;;;;;;;31.17;20.52;;;18.50;97.60;;;;;;5016240;28;20471;-88
2021/08/23 01:23:46;;;;;;;30.88;21.48;;;18.50;97.60;;;;;;5016417;28;20026;-89
2021/08/23 01:26:15;;;;;;;30.38;20.80;;;18.50;97.60;;;;;;5017608;28;20025;-88
2021/08/23 01:28:51;;;;;;;28.65;21.33;;;18.50;97.70;;;;;;5016069;28;20443;-88
2021/08/23 01:31:41;;;;;;;31.77;21.10;;;18.50;97.70;;;;;;5017257;28;20026;-88
2021/08/23 01:34:08;;;;;;;26.17;20.98;;;18.50;97.70;;;;;;5017534;28;20088;-89
2021/08/23 01:36:35;;;;;;;28.13;21.10;;;18.50;97.70;;;;;;5017579;28;20042;-89
2021/08/23 01:39:01;;;;;;;30.38;22.40;;;18.50;97.70;;;;;;5016580;28;20095;-89
2021/08/23 01:41:27;;;;;;;29.83;21.38;;;18.50;97.70;;;;;;5016669;28;20072;-89
2021/08/23 01:43:52;;;;;;;29.80;20.85;;;18.50;97.80;;;;;;5000138;28;20022;-88
2021/08/23 01:46:18;;;;;;;32.83;22.67;;;18.50;97.80;;;;;;5016433;28;20052;-90
2021/08/23 01:48:44;;;;;;;29.90;20.55;;;18.50;97.70;;;;;;4999971;28;20028;-92
2021/08/23 01:51:09;;;;;;;29.63;21.35;;;18.50;98.00;;;;;;5016952;28;20113;-91
2021/08/23 01:53:35;;;;;;;36.45;23.65;;;18.50;97.70;;;;;;5017981;28;20021;-90
2021/08/23 01:56:04;;;;;;;32.40;22.20;;;18.50;97.70;;;;;;5021597;28;20038;-90
2021/08/23 01:58:29;;;;;;;34.53;22.58;;;18.50;97.70;;;;;;5022225;28;20069;-91
2021/08/23 02:00:55;;;;;;;39.42;24.33;;;18.50;97.80;;;;;;5018634;28;20030;-88
2021/08/23 02:03:21;;;;;;;31.92;22.23;;;18.50;97.80;;;;;;5019095;28;20394;-92
2021/08/23 02:05:46;;;;;;;39.90;24.80;;;18.50;97.80;;;;;;5023350;28;20071;-91
2021/08/23 02:08:12;;;;;;;42.47;25.15;;;18.50;97.80;;;;;;5024596;28;20026;-92
2021/08/23 02:10:38;;;;;;;42.17;26.48;;;18.50;97.80;;;;;;5018227;28;20037;-89
2021/08/23 02:13:04;;;;;;;43.42;26.08;;;18.50;97.80;;;;;;5017127;28;20073;-89
2021/08/23 02:15:29;;;;;;;41.45;25.67;;;18.50;97.80;;;;;;5015762;28;20042;-91
2021/08/23 02:17:55;;;;;;;42.15;27.45;;;18.50;97.80;;;;;;4999444;28;20482;-91
2021/08/23 02:20:21;;;;;;;40.83;26.92;;;18.50;97.80;;;;;;5015770;28;20026;-90
2021/08/23 02:22:47;;;;;;;45.10;28.08;;;18.50;97.80;;;;;;4999185;28;20437;-93
2021/08/23 02:25:13;;;;;;;47.95;30.40;;;18.50;98.10;;;;;;4999126;28;20457;-92
2021/08/23 02:27:38;;;;;;;49.50;28.25;;;18.50;97.90;;;;;;5015573;28;20029;-88
2021/08/23 02:30:04;;;;;;;52.97;27.98;;;18.50;97.90;;;;;;5016404;28;20117;-88
2021/08/23 02:32:30;;;;;;;40.80;26.55;;;18.50;97.80;;;;;;5015007;28;20037;-88
2021/08/23 02:34:56;;;;;;;43.60;26.88;;;18.50;97.80;;;;;;5015158;28;20398;-89
2021/08/23 02:37:21;;;;;;;39.80;25.90;;;18.50;97.80;;;;;;5016470;28;20040;-89
2021/08/23 02:39:47;;;;;;;42.22;25.33;;;18.50;97.80;;;;;;5015339;28;20026;-92
2021/08/23 02:42:12;;;;;;;33.63;23.88;;;18.50;97.80;;;;;;5015478;28;20030;-92
2021/08/23 02:44:38;;;;;;;36.67;24.48;;;18.50;97.80;;;;;;5015065;28;20026;-93
2021/08/23 02:47:04;;;;;;;33.58;21.45;;;18.50;97.80;;;;;;5016203;28;20362;-90
2021/08/23 02:49:29;;;;;;;30.58;21.40;;;18.50;97.80;;;;;;5015139;28;20052;-91
2021/08/23 02:51:55;;;;;;;29.92;21.23;;;18.50;97.80;;;;;;4998851;28;20120;-90
2021/08/23 02:54:21;;;;;;;30.73;22.05;;;18.50;97.80;;;;;;5014990;28;20029;-89
2021/08/23 02:56:50;;;;;;;31.45;20.50;;;18.50;97.80;;;;;;5015845;28;20371;-89
2021/08/23 02:59:16;;;;;;;31.90;19.85;;;18.50;97.90;;;;;;5014593;28;20046;-88
2021/08/23 03:01:42;;;;;;;29.42;19.92;;;18.50;97.90;;;;;;5015849;28;20462;-89
2021/08/23 03:04:07;;;;;;;29.23;19.90;;;18.50;97.90;;;;;;5014932;28;20474;-91
2021/08/23 03:06:33;;;;;;;27.67;18.67;;;18.50;97.90;;;;;;5014790;28;20491;-89
2021/08/23 03:08:58;;;;;;;26.45;18.23;;;18.50;97.90;;;;;;4998326;28;20029;-91
2021/08/23 03:11:26;;;;;;;22.75;15.10;;;18.50;97.90;;;;;;5014192;28;20030;-89
2021/08/23 03:13:52;;;;;;;23.73;16.98;;;18.50;97.90;;;;;;4998181;28;20084;-89
2021/08/23 03:16:17;;;;;;;26.00;16.48;;;18.50;97.90;;;;;;5015619;28;20046;-91
2021/08/23 03:18:43;;;;;;;28.48;18.33;;;18.50;97.90;;;;;;5014665;28;20034;-90
2021/08/23 03:21:09;;;;;;;25.42;17.38;;;18.50;97.80;;;;;;4998387;28;20056;-91
2021/08/23 03:23:35;;;;;;;30.95;19.75;;;18.50;97.80;;;;;;5014443;28;20474;-90
2021/08/23 03:26:02;;;;;;;35.92;21.27;;;18.50;97.80;;;;;;4998415;28;20466;-89
2021/08/23 03:28:28;;;;;;;34.17;22.85;;;18.50;98.00;;;;;;5013656;28;20103;-88
2021/08/23 03:30:54;;;;;;;29.95;19.90;;;18.50;97.70;;;;;;5013732;28;20081;-91
2021/08/23 03:33:20;;;;;;;31.33;20.55;;;18.50;97.70;;;;;;5014284;28;20041;-90
2021/08/23 03:35:45;;;;;;;36.55;23.88;;;18.50;97.70;;;;;;5015119;28;20034;-92
2021/08/23 03:38:12;;;;;;;36.83;23.45;;;18.50;97.70;;;;;;5013711;28;20052;-88
2021/08/23 03:40:38;;;;;;;36.30;22.55;;;18.50;97.60;;;;;;4997313;28;20482;-89
2021/08/23 03:43:03;;;;;;;40.33;25.00;;;18.50;97.60;;;;;;4997688;28;20037;-88
2021/08/23 03:45:29;;;;;;;45.78;27.17;;;18.40;97.50;;;;;;5013799;28;20470;-88
2021/08/23 03:47:55;;;;;;;45.38;26.35;;;18.40;97.50;;;;;;5012293;28;20049;-88
2021/08/23 03:50:21;;;;;;;42.35;26.17;;;18.40;97.50;;;;;;5013486;28;20026;-92
2021/08/23 03:52:47;;;;;;;42.75;26.08;;;18.50;97.50;;;;;;4997267;28;20045;-91
2021/08/23 03:55:13;;;;;;;39.75;25.35;;;18.40;97.40;;;;;;4997713;28;20473;-88
2021/08/23 03:57:38;;;;;;;41.00;26.17;;;18.40;97.40;;;;;;4997604;28;20497;-88
2021/08/23 04:00:06;;;;;;;42.20;28.15;;;18.40;97.40;;;;;;4997153;28;20046;-90
2021/08/23 04:02:32;;;;;;;42.38;27.75;;;18.40;97.40;;;;;;5010909;28;20359;-87
2021/08/23 04:04:58;;;;;;;41.03;26.92;;;18.40;97.40;;;;;;4996256;28;20458;-88
2021/08/23 04:07:23;;;;;;;41.33;25.88;;;18.40;97.40;;;;;;5013072;28;20026;-90
2021/08/23 04:09:49;;;;;;;40.78;26.85;;;18.40;97.40;;;;;;5007685;28;20038;-88
2021/08/23 04:12:15;;;;;;;40.38;25.63;;;18.40;97.40;;;;;;5010514;28;20030;-90
2021/08/23 04:14:41;;;;;;;38.53;25.25;;;18.40;97.40;;;;;;4995248;28;20475;-90
2021/08/23 04:17:06;;;;;;;37.90;25.17;;;18.30;97.30;;;;;;4994416;28;20040;-90
2021/08/23 04:19:32;;;;;;;39.95;25.50;;;18.40;97.30;;;;;;4977445;28;20034;-90
2021/08/23 04:21:58;;;;;;;38.47;26.77;;;18.40;97.30;;;;;;4993712;28;20014;-88
2021/08/23 04:24:24;;;;;;;37.95;26.48;;;18.30;97.30;;;;;;4993608;28;20536;-90
2021/08/23 04:26:49;;;;;;;42.28;26.00;;;18.30;97.30;;;;;;4993891;28;20034;-90
2021/08/23 04:29:15;;;;;;;36.92;26.25;;;18.30;97.40;;;;;;4976967;28;20023;-92
2021/08/23 04:31:42;;;;;;;40.10;25.25;;;18.30;97.40;;;;;;4994810;28;20058;-90
2021/08/23 04:34:08;;;;;;;40.10;25.45;;;18.30;97.40;;;;;;4993595;28;20081;-90
2021/08/23 04:36:33;;;;;;;39.33;25.50;;;18.30;97.40;;;;;;4993337;28;20038;-87
2021/08/23 04:38:59;;;;;;;37.60;23.15;;;18.30;97.40;;;;;;4994195;28;20038;-92
2021/08/23 04:41:25;;;;;;;37.70;23.65;;;18.30;97.40;;;;;;5002072;28;20076;-88
2021/08/23 04:43:50;;;;;;;34.95;22.30;;;18.30;97.40;;;;;;4996536;28;20034;-86
2021/08/23 04:46:17;;;;;;;33.88;22.70;;;18.30;97.50;;;;;;5006122;28;20040;-87
2021/08/23 04:48:44;;;;;;;34.55;20.80;;;18.30;97.30;;;;;;4995810;28;20382;-87
2021/08/23 04:51:10;;;;;;;33.60;20.65;;;18.20;97.20;;;;;;5006294;28;20033;-85
2021/08/23 04:53:36;;;;;;;30.13;19.20;;;18.30;97.20;;;;;;5004381;28;20081;-86
2021/08/23 04:56:02;;;;;;;30.00;19.45;;;18.20;97.20;;;;;;5010951;28;20034;-87
2021/08/23 04:58:27;;;;;;;31.35;20.77;;;18.30;97.20;;;;;;5011032;28;20459;-84
2021/08/23 05:00:53;;;;;;;31.58;18.80;;;18.20;97.10;;;;;;4993494;28;20037;-87
2021/08/23 05:03:18;;;;;;;30.08;18.95;;;18.20;97.00;;;;;;5013625;28;20037;-87
2021/08/23 05:05:44;;;;;;;29.35;19.10;;;18.20;97.00;;;;;;4994088;28;20034;-86
2021/08/23 05:08:10;;;;;;;28.25;18.13;;;18.20;97.00;;;;;;5011627;28;20079;-88
2021/08/23 05:10:35;;;;;;;28.40;17.60;;;18.20;96.90;;;;;;5012621;28;20386;-88
2021/08/23 05:13:01;;;;;;;27.63;17.73;;;18.10;96.90;;;;;;4996221;28;20026;-87
2021/08/23 05:15:26;;;;;;;24.20;15.95;;;18.20;96.80;;;;;;5012243;28;20033;-88
2021/08/23 05:17:53;;;;;;;23.48;14.93;;;18.10;96.80;;;;;;4996328;28;20022;-87
2021/08/23 05:20:19;;;;;;;27.05;15.52;;;18.10;96.70;;;;;;5012527;28;20021;-87
2021/08/23 05:22:45;;;;;;;24.88;15.30;;;18.10;96.70;;;;;;4996453;28;20394;-87
2021/08/23 05:25:11;;;;;;;21.42;13.85;;;18.20;96.90;;;;;;5012335;28;20026;-86
2021/08/23 05:27:36;;;;;;;21.77;15.23;;;18.10;96.50;;;;;;4996541;28;20032;-86
2021/08/23 05:30:04;;;;;;;23.70;14.85;;;18.10;96.50;;;;;;5012509;28;20034;-87
2021/08/23 05:32:29;;;;;;;23.27;15.50;;;18.10;96.50;;;;;;4996049;28;20048;-87
2021/08/23 05:34:55;;;;;;;26.23;15.82;;;18.10;96.50;;;;;;4997441;28;20026;-88
2021/08/23 05:37:21;;;;;;;24.35;14.57;;;18.10;96.40;;;;;;5015847;28;20386;-86
2021/08/23 05:39:47;;;;;;;21.52;13.88;;;18.10;96.40;;;;;;5015617;28;20121;-87
2021/08/23 05:42:14;;;;;;;21.67;15.13;;;18.10;96.40;;;;;;5016509;28;20075;-87
2021/08/23 05:44:40;;;;;;;21.77;14.98;;;18.10;96.40;;;;;;4997341;28;20037;-87
2021/08/23 05:47:06;;;;;;;21.92;14.77;;;18.10;96.30;;;;;;5015763;28;20378;-87
2021/08/23 05:49:32;;;;;;;20.70;14.93;;;18.10;96.20;;;;;;4974947;28;20028;-86
2021/08/23 05:51:58;;;;;;;22.80;15.70;;;18.10;96.50;;;;;;5000040;28;20033;-86
2021/08/23 05:54:24;;;;;;;23.08;15.77;;;18.10;96.30;;;;;;4996127;28;20125;-87
2021/08/23 05:56:52;;;;;;;21.92;15.43;;;18.10;96.30;;;;;;5001821;28;20142;-87
2021/08/23 05:59:18;;;;;;;20.60;15.65;;;18.10;96.20;;;;;;4998809;28;20050;-85
2021/08/23 06:01:44;;;;;;;18.83;14.15;;;18.10;96.20;;;;;;4996222;28;20117;-86
2021/08/23 06:04:09;;;;;;;22.45;15.73;;;18.10;96.10;;;;;;4996888;28;20038;-87
2021/08/23 06:06:35;;;;;;;21.95;16.05;;;18.10;96.10;;;;;;4996189;28;20034;-87
2021/08/23 06:09:01;;;;;;;19.58;15.35;;;18.20;96.10;;;;;;4979533;28;20117;-87
2021/08/23 06:11:26;;;;;;;20.77;16.08;;;18.10;96.00;;;;;;4995867;28;20034;-87
2021/08/23 06:13:52;;;;;;;21.77;15.20;;;18.20;96.00;;;;;;4999221;28;20030;-87
2021/08/23 06:16:18;;;;;;;21.25;15.75;;;18.20;96.00;;;;;;4984647;28;20372;-87
2021/08/23 06:18:44;;;;;;;21.45;15.40;;;18.20;96.00;;;;;;4982296;28;20166;-86
2021/08/23 06:21:10;;;;;;;19.63;14.75;;;18.20;96.00;;;;;;4979222;28;20100;-85
2021/08/23 06:23:36;;;;;;;19.73;14.90;;;18.20;96.00;;;;;;5007171;28;20492;-87
2021/08/23 06:26:01;;;;;;;20.08;15.15;;;18.20;96.00;;;;;;5015673;28;20109;-89
2021/08/23 06:28:27;;;;;;;18.55;13.57;;;18.20;96.00;;;;;;5033037;28;20026;-87
2021/08/23 06:30:53;;;;;;;17.75;13.35;;;18.20;96.00;;;;;;5015156;28;20030;-86
2021/08/23 06:33:18;;;;;;;19.60;13.88;;;18.20;96.00;;;;;;5016264;28;20113;-91
2021/08/23 06:35:44;;;;;;;18.70;12.35;;;18.30;96.00;;;;;;5015030;28;20547;-89
2021/08/23 06:38:10;;;;;;;17.17;11.55;;;18.30;96.00;;;;;;5015123;28;20026;-90
2021/08/23 06:40:36;;;;;;;18.48;12.13;;;18.30;95.90;;;;;;4997887;28;20444;-88
2021/08/23 06:43:02;;;;;;;17.05;11.77;;;18.40;95.90;;;;;;4998640;28;20034;-87
2021/08/23 06:45:28;;;;;;;15.10;10.85;;;18.40;95.90;;;;;;5013491;28;20037;-87
2021/08/23 06:47:54;;;;;;;18.92;12.35;;;18.40;95.80;;;;;;4997272;28;20029;-87
2021/08/23 06:50:19;;;;;;;15.88;11.00;;;18.50;95.80;;;;;;5014071;28;20433;-87
2021/08/23 06:52:45;;;;;;;12.85;9.45;;;18.50;95.80;;;;;;5014928;28;20026;-86
2021/08/23 06:55:11;;;;;;;15.27;9.95;;;18.50;95.80;;;;;;5015017;28;20033;-87
2021/08/23 06:57:36;;;;;;;17.15;10.73;;;18.60;95.70;;;;;;4997318;28;20026;-86
2021/08/23 07:00:03;;;;;;;14.07;9.50;;;18.60;95.60;;;;;;5014293;28;20046;-86
2021/08/23 07:02:29;;;;;;;13.30;8.50;;;18.60;95.60;;;;;;4996738;28;20513;-87
2021/08/23 07:04:55;;;;;;;13.13;8.55;;;18.60;95.50;;;;;;4988024;28;20034;-88
2021/08/23 07:07:20;;;;;;;14.65;8.75;;;18.70;95.50;;;;;;4994248;28;20129;-87
2021/08/23 07:09:46;;;;;;;10.70;7.55;;;18.70;95.50;;;;;;5008782;28;20056;-92
2021/08/23 07:12:11;;;;;;;12.52;7.28;;;18.80;95.50;;;;;;5020840;28;20025;-93
2021/08/23 07:14:37;;;;;;;12.57;7.97;;;18.90;95.50;;;;;;5039000;28;20117;-90
2021/08/23 07:17:07;;;;;;;10.70;6.47;;;19.00;95.40;;;;;;5042963;28;20064;-93
2021/08/23 07:19:33;;;;;;;11.02;7.40;;;19.00;95.30;;;;;;5024330;28;20022;-91
2021/08/23 07:21:58;;;;;;;10.48;5.75;;;19.10;95.30;;;;;;5033709;28;20030;-90
2021/08/23 07:24:24;;;;;;;9.18;5.95;;;19.10;95.20;;;;;;5029939;28;20085;-90
2021/08/23 07:26:50;;;;;;;11.43;5.80;;;19.20;95.10;;;;;;5027026;28;20108;-92
2021/08/23 07:29:17;;;;;;;8.82;5.80;;;19.20;95.00;;;;;;5019422;28;20037;-91
2021/08/23 07:31:43;;;;;;;7.50;4.22;;;19.20;94.80;;;;;;5017189;28;20052;-89
2021/08/23 07:34:09;;;;;;;8.23;4.90;;;19.30;94.70;;;;;;5018355;28;20022;-92
2021/08/23 07:36:35;;;;;;;7.57;4.80;;;19.30;94.60;;;;;;5021228;28;20038;-92
2021/08/23 07:39:02;;;;;;;8.95;5.05;;;19.40;94.40;;;;;;5028198;28;20033;-90
2021/08/23 07:41:30;;;;;;;9.05;4.30;;;19.40;94.30;;;;;;5014815;28;20154;-86
2021/08/23 07:43:56;;;;;;;8.98;4.25;;;19.40;94.20;;;;;;5003389;28;20035;-84
2021/08/23 07:46:21;;;;;;;7.05;4.35;;;19.50;94.00;;;;;;4995092;28;20026;-84
2021/08/23 07:48:47;;;;;;;7.55;5.15;;;19.50;93.80;;;;;;4996196;28;20037;-81
2021/08/23 07:51:13;;;;;;;10.25;5.03;;;19.60;93.50;;;;;;4995987;28;20477;-82
2021/08/23 07:53:39;;;;;;;9.55;4.60;;;19.60;93.20;;;;;;5012581;28;20029;-81
2021/08/23 07:56:05;;;;;;;10.82;4.75;;;19.60;93.00;;;;;;5013616;28;20064;-82
2021/08/23 07:58:31;;;;;;;8.57;4.95;;;19.60;92.80;;;;;;4994720;28;20085;-81
2021/08/23 08:00:57;;;;;;;12.93;5.18;;;19.60;92.70;;;;;;5013011;28;20030;-83
2021/08/23 08:03:23;;;;;;;10.98;5.15;;;19.70;92.70;;;;;;5013768;28;20038;-83
2021/08/23 08:05:48;;;;;;;9.25;4.97;;;19.70;92.50;;;;;;5012965;28;20033;-82
2021/08/23 08:08:14;;;;;;;9.18;4.53;;;19.70;92.40;;;;;;5013702;28;20385;-81
2021/08/23 08:10:39;;;;;;;7.90;4.30;;;19.80;92.30;;;;;;5013294;28;20096;-82
2021/08/23 08:13:06;;;;;;;14.40;4.22;;;19.80;92.00;;;;;;4995731;28;20037;-83
2021/08/23 08:15:33;;;;;;;8.50;3.55;;;19.80;91.80;;;;;;5013218;28;20099;-85
2021/08/23 08:17:59;;;;;;;8.07;3.72;;;19.70;91.80;;;;;;5012769;28;20052;-86
2021/08/23 08:20:26;;;;;;;8.20;4.32;;;19.70;91.70;;;;;;5012381;28;20474;-86
2021/08/23 08:22:51;;;;;;;7.47;3.38;;;19.70;91.80;;;;;;5012841;28;20038;-85
2021/08/23 08:25:18;;;;;;;7.68;3.42;;;19.70;91.80;;;;;;5011429;28;20586;-84
2021/08/23 08:27:44;;;;;;;6.95;2.92;;;19.70;91.70;;;;;;5013517;28;20079;-84
2021/08/23 08:30:14;;;;;;;6.82;3.05;;;19.80;91.70;;;;;;5013354;28;20113;-85
2021/08/23 08:32:39;;;;;;;7.25;3.35;;;19.80;91.60;;;;;;5013754;28;20109;-85
2021/08/23 08:35:05;;;;;;;6.50;2.92;;;19.90;91.50;;;;;;5013507;28;20109;-84
2021/08/23 08:37:31;;;;;;;7.78;2.88;;;19.90;91.20;;;;;;5013455;28;20505;-83
2021/08/23 08:39:57;;;;;;;7.97;3.20;;;19.90;91.20;;;;;;5012037;28;20045;-87
2021/08/23 08:42:22;;;;;;;8.18;2.38;;;19.90;91.20;;;;;;5011901;28;20029;-84
2021/08/23 08:44:48;;;;;;;6.45;2.65;;;20.00;91.30;;;;;;4995823;28;20478;-84
2021/08/23 08:47:16;;;;;;;7.60;2.50;;;20.00;91.10;;;;;;4995213;28;20057;-86
2021/08/23 08:49:43;;;;;;;9.65;2.65;;;20.10;90.80;;;;;;5012374;28;20036;-85
2021/08/23 08:52:09;;;;;;;7.32;2.22;;;20.10;90.80;;;;;;4995803;28;20030;-86
2021/08/23 08:54:35;;;;;;;7.82;2.38;;;20.20;90.70;;;;;;5013150;28;20029;-85
2021/08/23 08:57:03;;;;;;;4.30;1.80;;;20.30;90.70;;;;;;4995872;28;20471;-86
2021/08/23 08:59:29;;;;;;;7.20;1.80;;;20.40;90.60;;;;;;5012928;28;20473;-86
2021/08/23 09:01:55;;;;;;;5.78;2.25;;;20.50;90.40;;;;;;4995710;28;20035;-84
2021/08/23 09:04:50;;;;;;;5.35;2.42;;;20.60;90.00;;;;;;5012071;28;20078;-85
2021/08/23 09:07:16;;;;;;;5.85;1.95;;;20.70;89.40;;;;;;5012464;28;20064;-86
2021/08/23 09:09:42;;;;;;;4.72;1.67;;;20.80;89.30;;;;;;5014853;28;20108;-86
2021/08/23 09:12:10;;;;;;;4.57;2.00;;;20.90;89.00;;;;;;5016607;28;20057;-85
2021/08/23 09:14:52;;;;;;;5.05;1.70;;;20.90;89.00;;;;;;5015370;28;20013;-85
2021/08/23 09:17:22;;;;;;;4.75;1.98;;;21.00;88.00;;;;;;5014943;28;20398;-86
2021/08/23 09:20:06;;;;;;;4.45;1.75;;;21.00;87.30;;;;;;5016290;28;20029;-85
2021/08/23 09:22:32;;;;;;;6.47;2.75;;;21.10;87.00;;;;;;5006111;28;20026;-85
2021/08/23 09:25:12;;;;;;;3.33;1.33;;;21.20;86.40;;;;;;5013725;28;20036;-85
2021/08/23 09:27:37;;;;;;;5.50;1.70;;;21.20;86.30;;;;;;5015589;28;20029;-82
2021/08/23 09:30:05;;;;;;;5.18;1.88;;;21.30;85.80;;;;;;5016124;28;20030;-79
2021/08/23 09:32:45;;;;;;;6.82;2.50;;;21.30;84.00;;;;;;5015233;28;20029;-82
2021/08/23 09:35:11;;;;;;;9.98;2.83;;;21.30;84.00;;;;;;5015136;28;20030;-82
2021/08/23 09:37:36;;;;;;;7.07;2.53;;;21.20;83.80;;;;;;5016544;28;20421;-82
2021/08/23 09:40:13;;;;;;;5.35;1.90;;;21.20;83.50;;;;;;5015255;28;20034;-82
2021/08/23 09:42:38;;;;;;;5.40;2.28;;;21.10;83.50;;;;;;5014882;28;20034;-81
2021/08/23 09:45:15;;;;;;;5.40;2.03;;;21.10;83.10;;;;;;5015070;28;20100;-82
2021/08/23 09:47:41;;;;;;;7.60;2.10;;;21.10;83.10;;;;;;5015052;28;20030;-80
2021/08/23 09:50:14;;;;;;;7.00;2.03;;;21.10;83.40;;;;;;5015098;28;20116;-80
2021/08/23 09:52:39;;;;;;;5.00;1.85;;;21.10;83.70;;;;;;5014935;28;20041;-82
2021/08/23 09:55:08;;;;;;;5.18;1.30;;;21.30;84.00;;;;;;5016151;28;20030;-80
2021/08/23 09:57:36;;;;;;;5.95;1.80;;;21.40;84.40;;;;;;5001634;28;20220;-80
2021/08/23 10:00:03;;;;;;;4.47;1.60;;;21.60;84.10;;;;;;4996013;28;20515;-79
2021/08/23 10:02:29;;;;;;;8.80;1.98;;;21.80;83.90;;;;;;4997615;28;20033;-80
2021/08/23 10:04:59;;;;;;;3.88;1.70;;;22.10;83.30;;;;;;5015783;28;20038;-80
2021/08/23 10:07:27;;;;;;;5.00;1.65;;;22.20;82.20;;;;;;5015901;28;20088;-83
2021/08/23 10:09:53;;;;;;;5.32;1.90;;;22.30;81.60;;;;;;5015840;28;20128;-81
2021/08/23 10:12:20;;;;;;;5.20;1.27;;;22.50;79.70;;;;;;5014392;28;20367;-81
2021/08/23 10:14:47;;;;;;;4.50;1.80;;;22.60;79.50;;;;;;5014381;28;20088;-80
2021/08/23 10:17:13;;;;;;;3.17;1.00;;;22.80;79.30;;;;;;5015705;28;20045;-79
2021/08/23 10:19:40;;;;;;;4.50;1.40;;;23.10;78.80;;;;;;5014241;28;20463;-80
2021/08/23 10:22:06;;;;;;;4.75;1.20;;;23.30;78.10;;;;;;5014629;28;20060;-81
2021/08/23 10:24:32;;;;;;;4.38;1.48;;;23.60;77.90;;;;;;5015242;28;20448;-81
2021/08/23 10:26:59;;;;;;;7.05;1.10;;;23.80;76.60;;;;;;4997900;28;20041;-80
2021/08/23 10:29:25;;;;;;;3.67;1.02;;;23.80;75.90;;;;;;5015435;28;20104;-80
2021/08/23 10:31:51;;;;;;;7.07;1.45;;;23.80;75.30;;;;;;5013577;28;20026;-82
2021/08/23 10:34:21;;;;;;;5.00;1.08;;;23.80;74.30;;;;;;4997130;28;20121;-83
2021/08/23 10:36:49;;;;;;;5.20;1.52;;;23.80;74.30;;;;;;4995550;28;20042;-82
2021/08/23 10:39:20;;;;;;;3.20;1.00;;;23.70;73.50;;;;;;4996202;28;20391;-92
2021/08/23 10:41:47;;;;;;;5.13;1.58;;;23.70;73.60;;;;;;4999199;28;20113;-92
2021/08/23 10:44:30;;;;;;;4.82;1.50;;;23.70;73.30;;;;;;4998884;28;20042;-92
2021/08/23 10:47:09;;;;;;;4.35;1.35;;;23.60;73.00;;;;;;4996258;28;20105;-91
2021/08/23 10:49:44;;;;;;;8.00;1.70;;;23.70;72.50;;;;;;4996636;28;20038;-92
2021/08/23 10:52:11;;;;;;;3.63;1.40;;;23.70;72.40;;;;;;4998944;28;20082;-91
2021/08/23 10:54:42;;;;;;;4.22;1.38;;;23.80;73.10;;;;;;4996529;28;20026;-92
2021/08/23 10:57:11;;;;;;;2.83;1.15;;;24.20;73.30;;;;;;4996551;28;20066;-93
2021/08/23 11:00:07;;;;;;;3.72;1.10;;;24.50;72.60;;;;;;4996956;28;20043;-93
2021/08/23 11:02:37;;;;;;;2.42;1.10;;;25.00;69.50;;;;;;5000699;28;20018;-88
2021/08/23 11:05:12;;;;;;;3.95;1.40;;;25.30;68.40;;;;;;5019645;28;20037;-87
2021/08/23 11:07:41;;;;;;;4.65;1.35;;;25.60;67.70;;;;;;5015735;28;20412;-92
2021/08/23 11:10:22;;;;;;;4.72;1.05;;;26.20;67.60;;;;;;5015911;28;20018;-91
2021/08/23 11:12:56;;;;;;;3.80;1.00;;;27.00;66.80;;;;;;5014895;28;20490;-90
2021/08/23 11:15:24;;;;;;;4.00;1.00;;;27.70;67.10;;;;;;5014486;28;20041;-89
2021/08/23 11:17:52;;;;;;;3.90;1.10;;;28.00;66.60;;;;;;4998107;28;20038;-90
2021/08/23 11:20:21;;;;;;;2.15;0.75;;;28.20;66.20;;;;;;4994830;28;20025;-90
2021/08/23 11:23:02;;;;;;;2.55;0.75;;;28.30;65.60;;;;;;4996129;28;20446;-91
2021/08/23 11:25:35;;;;;;;2.40;0.65;;;28.20;63.70;;;;;;4995568;28;20073;-88
2021/08/23 11:28:04;;;;;;;2.97;1.00;;;28.30;63.20;;;;;;4994716;28;20026;-88
2021/08/23 11:30:39;;;;;;;2.60;0.70;;;28.20;62.10;;;;;;4994514;28;20113;-84
2021/08/23 11:33:06;;;;;;;3.58;0.68;;;28.10;61.60;;;;;;4994206;28;20025;-87
2021/08/23 11:35:33;;;;;;;3.08;0.85;;;28.00;61.40;;;;;;4995192;28;20133;-89
2021/08/23 11:38:07;;;;;;;2.78;0.95;;;28.00;60.80;;;;;;4978591;28;20034;-88
2021/08/23 11:40:35;;;;;;;3.88;0.80;;;27.90;61.00;;;;;;5009391;28;20033;-83
2021/08/23 11:43:03;;;;;;;4.05;0.82;;;27.90;60.80;;;;;;5012910;28;20034;-80
2021/08/23 11:45:35;;;;;;;3.30;0.85;;;27.90;60.10;;;;;;5013861;28;20121;-85
2021/08/23 11:48:01;;;;;;;1.83;0.70;;;28.00;60.10;;;;;;5019757;28;20492;-83
2021/08/23 11:50:28;;;;;;;3.17;0.77;;;28.10;60.00;;;;;;5032735;28;20061;-83
2021/08/23 11:53:00;;;;;;;2.35;0.70;;;28.20;59.90;;;;;;5017237;28;20037;-83
2021/08/23 11:55:38;;;;;;;1.88;0.60;;;28.50;59.70;;;;;;5014152;28;20088;-88
2021/08/23 11:58:06;;;;;;;1.77;0.63;;;28.70;59.10;;;;;;5014713;28;20036;-89
2021/08/23 12:00:34;;;;;;;4.13;0.77;;;28.90;59.10;;;;;;5013730;28;20077;-87
2021/08/23 12:03:21;;;;;;;2.90;0.90;;;29.10;58.70;;;;;;5017568;28;20025;-87
2021/08/23 12:05:48;;;;;;;3.60;0.80;;;29.40;58.20;;;;;;5033064;28;20561;-86
2021/08/23 12:08:40;;;;;;;2.15;0.60;;;29.60;57.70;;;;;;5032506;28;20117;-88
2021/08/23 12:11:13;;;;;;;3.38;0.65;;;29.70;56.30;;;;;;5018931;28;20022;-88
2021/08/23 12:13:39;;;;;;;2.45;0.60;;;29.70;56.50;;;;;;5014326;28;20033;-87
2021/08/23 12:16:08;;;;;;;1.48;0.60;;;29.60;56.40;;;;;;5014090;28;20033;-85
2021/08/23 12:18:40;;;;;;;2.47;0.70;;;29.50;55.90;;;;;;5014249;28;20037;-85
2021/08/23 12:21:16;;;;;;;1.65;0.70;;;29.50;55.50;;;;;;5013123;28;20386;-86
2021/08/23 12:23:52;;;;;;;4.30;0.90;;;29.60;55.40;;;;;;5014263;28;20088;-95
2021/08/23 12:26:33;;;;;;;4.25;1.02;;;29.70;55.20;;;;;;5012865;28;20026;-86
2021/08/23 12:29:18;;;;;;;1.75;0.70;;;30.00;54.90;;;;;;5015040;28;20026;-92
2021/08/23 12:32:00;;;;;;;3.15;1.00;;;30.20;54.30;;;;;;5013733;28;20029;-86
2021/08/23 12:34:30;;;;;;;2.17;0.60;;;30.20;53.90;;;;;;5013145;28;20053;-88
2021/08/23 12:37:01;;;;;;;3.30;0.60;;;30.10;54.20;;;;;;5014148;28;20038;-91
2021/08/23 12:39:27;;;;;;;2.28;0.60;;;30.00;54.10;;;;;;5030904;28;20057;-96